createdAt,value
2019-02-06T00:03:31.466Z,102312.84
2019-02-06T00:06:00.011Z,102311.78
2019-02-06T00:09:08.468Z,102314.89
2019-02-06T00:11:37.073Z,102324.34
2019-02-06T00:14:05.691Z,102322.34
2019-02-06T00:16:34.247Z,102320.38
2019-02-06T00:21:51.777Z,102326.88
2019-02-06T00:24:20.345Z,102321.78
2019-02-06T00:26:48.829Z,102322.16
2019-02-06T00:29:17.507Z,102317.27
2019-02-06T00:31:46.035Z,102322.08
2019-02-06T00:34:16.377Z,102328.08
2019-02-06T00:36:44.834Z,102321.78
2019-02-06T00:39:13.403Z,102323.86
2019-02-06T00:41:41.944Z,102321.78
2019-02-06T00:44:10.435Z,102322.34
2019-02-06T00:46:38.973Z,102321.23
2019-02-06T00:49:07.483Z,102319.14
2019-02-06T00:51:36.116Z,102313.95
2019-02-06T00:54:04.710Z,102311.98
2019-02-06T00:56:33.301Z,102310.27
2019-02-06T00:59:02.160Z,102315.19
2019-02-06T01:01:30.779Z,102308.37
2019-02-06T01:03:59.309Z,102316.89
2019-02-06T01:06:28.070Z,102321.48
2019-02-06T01:08:56.551Z,102323.02
2019-02-06T01:11:25.198Z,102322.63
2019-02-06T01:13:53.720Z,102321.95
2019-02-06T01:16:22.246Z,102321.70
2019-02-06T01:18:50.729Z,102323.28
2019-02-06T01:21:19.276Z,102323.48
2019-02-06T01:23:47.771Z,102319.44
2019-02-06T01:26:16.284Z,102319.52
2019-02-06T01:28:45.281Z,102323.86
2019-02-06T01:36:38.167Z,102322.89
2019-02-06T01:39:46.950Z,102321.58
2019-02-06T01:42:15.531Z,102323.66
2019-02-06T01:44:44.064Z,102321.87
2019-02-06T01:47:13.168Z,102326.30
2019-02-06T01:49:44.646Z,102334.78
2019-02-06T01:52:11.786Z,102327.44
2019-02-06T01:54:40.344Z,102324.80
2019-02-06T01:57:10.570Z,102325.74
2019-02-06T01:59:39.171Z,102336.09
2019-02-06T02:02:07.702Z,102325.74
2019-02-06T02:04:36.275Z,102319.52
2019-02-06T02:07:04.903Z,102330.17
2019-02-06T02:09:33.437Z,102327.83
2019-02-06T02:12:02.165Z,102331.96
2019-02-06T02:14:30.853Z,102323.87
2019-02-06T02:16:59.440Z,102323.66
2019-02-06T02:19:27.879Z,102317.06
2019-02-06T02:21:56.732Z,102312.81
2019-02-06T02:24:25.317Z,102314.80
2019-02-06T02:26:53.775Z,102319.52
2019-02-06T02:29:24.152Z,102324.13
2019-02-06T02:31:53.010Z,102331.20
2019-02-06T02:34:21.497Z,102333.28
2019-02-06T02:36:50.043Z,102329.70
2019-02-06T02:39:18.616Z,102326.13
2019-02-06T02:41:47.164Z,102326.13
2019-02-06T02:44:17.447Z,102324.42
2019-02-06T02:46:45.967Z,102333.57
2019-02-06T02:49:14.518Z,102331.02
2019-02-06T02:51:44.463Z,102325.53
2019-02-06T02:54:13.390Z,102316.50
2019-02-06T02:56:42.050Z,102325.45
2019-02-06T02:59:10.498Z,102325.19
2019-02-06T03:06:49.890Z,102315.09
2019-02-06T03:09:18.427Z,102314.89
2019-02-06T03:11:47.371Z,102315.56
2019-02-06T03:14:16.050Z,102319.14
2019-02-06T03:16:44.959Z,102314.03
2019-02-06T03:19:13.593Z,102316.41
2019-02-06T03:21:42.478Z,102303.84
2019-02-06T03:24:11.018Z,102296.13
2019-02-06T03:26:39.502Z,102301.12
2019-02-06T03:29:09.895Z,102297.63
2019-02-06T03:31:38.476Z,102298.39
2019-02-06T03:34:07.027Z,102295.08
2019-02-06T03:36:40.390Z,102296.14
2019-02-06T03:39:45.666Z,102301.89
2019-02-06T03:42:14.252Z,102302.27
2019-02-06T03:44:42.854Z,102295.67
2019-02-06T03:47:11.385Z,102290.58
2019-02-06T03:49:42.693Z,102293.30
2019-02-06T03:52:10.398Z,102293.86
2019-02-06T03:54:38.912Z,102293.12
2019-02-06T03:57:07.376Z,102295.38
2019-02-06T03:59:35.914Z,102293.86
2019-02-06T04:02:04.540Z,102291.81
2019-02-06T04:04:33.027Z,102294.84
2019-02-06T04:07:01.913Z,102291.98
2019-02-06T04:09:32.223Z,102297.27
2019-02-06T04:12:00.701Z,102293.13
2019-02-06T04:14:29.254Z,102291.13
2019-02-06T04:16:57.772Z,102294.71
2019-02-06T04:19:26.595Z,102285.59
2019-02-06T04:21:55.153Z,102284.07
2019-02-06T04:24:25.424Z,102275.39
2019-02-06T04:26:53.899Z,102275.39
2019-02-06T04:29:22.420Z,102277.77
2019-02-06T04:31:50.969Z,102282.38
2019-02-06T04:34:19.443Z,102278.97
2019-02-06T04:36:47.919Z,102284.70
2019-02-06T04:39:16.895Z,102284.92
2019-02-06T04:44:34.576Z,102282.53
2019-02-06T04:47:03.105Z,102280.86
2019-02-06T04:49:31.594Z,102277.84
2019-02-06T04:52:01.863Z,102280.47
2019-02-06T04:54:30.268Z,102272.88
2019-02-06T04:56:58.744Z,102274.41
2019-02-06T04:59:27.287Z,102269.30
2019-02-06T05:01:55.883Z,102263.86
2019-02-06T05:04:24.248Z,102265.64
2019-02-06T05:06:52.716Z,102272.88
2019-02-06T05:09:22.945Z,102265.34
2019-02-06T05:11:51.736Z,102260.29
2019-02-06T05:14:20.177Z,102261.76
2019-02-06T05:16:48.646Z,102258.17
2019-02-06T05:19:17.166Z,102259.48
2019-02-06T05:21:45.665Z,102263.83
2019-02-06T05:24:15.935Z,102261.28
2019-02-06T05:29:39.272Z,102263.79
2019-02-06T05:32:07.874Z,102267.73
2019-02-06T05:34:38.143Z,102269.99
2019-02-06T05:37:06.757Z,102269.50
2019-02-06T05:39:35.297Z,102271.17
2019-02-06T05:42:03.946Z,102274.91
2019-02-06T05:44:32.509Z,102274.36
2019-02-06T05:47:00.981Z,102283.78
2019-02-06T05:49:29.632Z,102271.91
2019-02-06T05:51:59.867Z,102278.48
2019-02-06T05:54:28.378Z,102276.24
2019-02-06T05:56:56.951Z,102272.67
2019-02-06T05:59:25.776Z,102264.97
2019-02-06T06:01:54.323Z,102253.64
2019-02-06T06:04:22.873Z,102257.48
2019-02-06T06:06:51.404Z,102266.09
2019-02-06T06:09:19.867Z,102263.92
2019-02-06T06:11:48.711Z,102267.76
2019-02-06T06:14:17.242Z,102264.66
2019-02-06T06:16:45.817Z,102270.97
2019-02-06T06:19:14.432Z,102269.50
2019-02-06T06:21:43.243Z,102273.22
2019-02-06T06:24:11.879Z,102268.38
2019-02-06T06:26:40.529Z,102265.03
2019-02-06T06:29:09.003Z,102261.43
2019-02-06T06:31:37.474Z,102265.96
2019-02-06T06:34:06.027Z,102266.92
2019-02-06T06:36:34.485Z,102273.13
2019-02-06T06:41:38.238Z,102271.97
2019-02-06T06:44:06.864Z,102265.96
2019-02-06T06:46:35.383Z,102262.01
2019-02-06T06:49:23.036Z,102263.95
2019-02-06T06:51:51.509Z,102248.42
2019-02-06T06:54:20.343Z,102247.93
2019-02-06T06:56:48.892Z,102247.78
2019-02-06T06:59:17.457Z,102242.28
2019-02-06T07:01:45.985Z,102241.59
2019-02-06T07:04:14.678Z,102247.32
2019-02-06T07:06:46.269Z,102245.34
2019-02-06T07:09:13.371Z,102243.70
2019-02-06T07:11:42.381Z,102240.50
2019-02-06T07:14:10.837Z,102243.32
2019-02-06T07:16:39.391Z,102243.80
2019-02-06T07:19:08.030Z,102233.84
2019-02-06T07:21:36.528Z,102238.38
2019-02-06T07:24:05.714Z,102230.95
2019-02-06T07:26:34.210Z,102228.50
2019-02-06T07:29:03.188Z,102226.56
2019-02-06T07:31:31.762Z,102207.42
2019-02-06T07:34:00.460Z,102201.27
2019-02-06T07:36:28.920Z,102210.67
2019-02-06T07:38:57.411Z,102209.27
2019-02-06T07:41:27.661Z,102208.34
2019-02-06T07:43:56.165Z,102213.02
2019-02-06T07:46:24.708Z,102226.16
2019-02-06T07:48:53.306Z,102229.48
2019-02-06T07:51:21.842Z,102227.39
2019-02-06T07:53:50.348Z,102225.92
2019-02-06T07:56:18.945Z,102224.28
2019-02-06T07:58:50.586Z,102235.16
2019-02-06T08:01:17.781Z,102229.78
2019-02-06T08:03:46.361Z,102230.06
2019-02-06T08:06:14.912Z,102234.54
2019-02-06T08:08:43.471Z,102234.75
2019-02-06T08:11:12.350Z,102233.53
2019-02-06T08:13:41.070Z,102230.98
2019-02-06T08:16:09.640Z,102230.86
2019-02-06T08:18:38.151Z,102236.93
2019-02-06T08:21:06.854Z,102233.45
2019-02-06T08:23:54.750Z,102223.34
2019-02-06T08:26:23.569Z,102222.61
2019-02-06T08:28:52.038Z,102217.75
2019-02-06T08:31:20.582Z,102215.48
2019-02-06T08:33:49.170Z,102213.97
2019-02-06T08:36:17.856Z,102205.95
2019-02-06T08:38:49.719Z,102201.92
2019-02-06T08:41:16.711Z,102207.58
2019-02-06T08:43:45.349Z,102205.13
2019-02-06T08:46:13.823Z,102203.45
2019-02-06T08:48:42.355Z,102204.22
2019-02-06T08:51:10.907Z,102197.09
2019-02-06T08:53:39.479Z,102194.17
2019-02-06T08:56:08.166Z,102187.66
2019-02-06T08:58:36.730Z,102185.77
2019-02-06T09:01:05.254Z,102180.91
2019-02-06T09:03:33.819Z,102177.07
2019-02-06T09:06:02.358Z,102160.41
2019-02-06T09:08:30.953Z,102163.80
2019-02-06T09:10:59.506Z,102165.36
2019-02-06T09:13:29.769Z,102172.13
2019-02-06T09:15:58.403Z,102180.51
2019-02-06T09:18:27.017Z,102183.44
2019-02-06T09:20:55.528Z,102174.41
2019-02-06T09:23:24.179Z,102179.33
2019-02-06T09:25:52.639Z,102172.15
2019-02-06T09:28:21.163Z,102164.91
2019-02-06T09:30:49.827Z,102157.17
2019-02-06T09:33:18.450Z,102160.27
2019-02-06T09:35:47.136Z,102164.80
2019-02-06T09:38:15.679Z,102167.41
2019-02-06T09:40:44.300Z,102169.08
2019-02-06T09:43:12.856Z,102163.59
2019-02-06T09:45:41.248Z,102160.95
2019-02-06T09:48:09.790Z,102153.00
2019-02-06T09:51:19.350Z,102148.84
2019-02-06T09:53:48.618Z,102159.97
2019-02-06T09:56:17.268Z,102162.17
2019-02-06T09:58:45.850Z,102156.28
2019-02-06T10:01:14.482Z,102154.97
2019-02-06T10:03:43.087Z,102152.51
2019-02-06T10:06:11.588Z,102154.03
2019-02-06T10:08:40.069Z,102147.11
2019-02-06T10:11:10.382Z,102141.56
2019-02-06T10:13:38.767Z,102144.92
2019-02-06T10:16:07.282Z,102140.24
2019-02-06T10:18:35.841Z,102141.70
2019-02-06T10:21:04.298Z,102137.37
2019-02-06T10:23:32.885Z,102130.05
2019-02-06T10:26:01.443Z,102114.61
2019-02-06T10:28:30.226Z,102118.81
2019-02-06T10:30:58.709Z,102108.70
2019-02-06T10:33:27.596Z,102098.59
2019-02-06T10:35:56.657Z,102102.27
2019-02-06T10:38:25.281Z,102094.80
2019-02-06T10:40:53.897Z,102094.02
2019-02-06T10:43:31.697Z,102086.66
2019-02-06T10:45:53.412Z,102086.09
2019-02-06T10:48:21.922Z,102082.62
2019-02-06T10:50:50.598Z,102074.37
2019-02-06T10:53:19.226Z,102076.02
2019-02-06T10:55:47.801Z,102068.45
2019-02-06T10:58:18.192Z,102058.05
2019-02-06T11:01:26.690Z,102052.98
2019-02-06T11:03:55.234Z,102051.69
2019-02-06T11:06:23.920Z,102059.16
2019-02-06T11:08:52.481Z,102051.00
2019-02-06T11:11:21.519Z,102047.51
2019-02-06T11:13:50.037Z,102042.73
2019-02-06T11:16:18.630Z,102030.57
2019-02-06T11:18:47.292Z,102025.52
2019-02-06T11:21:15.840Z,102027.92
2019-02-06T11:23:44.541Z,102034.27
2019-02-06T11:26:13.142Z,102038.22
2019-02-06T11:28:41.786Z,102039.94
2019-02-06T11:31:10.461Z,102036.43
2019-02-06T11:33:39.117Z,102025.35
2019-02-06T11:36:07.576Z,102026.48
2019-02-06T11:38:37.926Z,102022.02
2019-02-06T11:41:06.525Z,102011.91
2019-02-06T11:43:35.129Z,102004.89
2019-02-06T11:46:03.682Z,101999.84
2019-02-06T11:48:32.531Z,102006.11
2019-02-06T11:51:01.176Z,101997.44
2019-02-06T11:53:31.649Z,101989.24
2019-02-06T11:56:00.219Z,101984.41
2019-02-06T11:58:28.771Z,101990.92
2019-02-06T12:01:47.267Z,101977.30
2019-02-06T12:03:51.778Z,101976.20
2019-02-06T12:06:20.335Z,101962.36
2019-02-06T12:08:48.938Z,101959.47
2019-02-06T12:11:17.569Z,101952.97
2019-02-06T12:13:46.079Z,101949.34
2019-02-06T12:16:14.621Z,101946.80
2019-02-06T12:18:43.226Z,101946.31
2019-02-06T12:21:13.684Z,101937.14
2019-02-06T12:23:42.245Z,101929.44
2019-02-06T12:26:11.211Z,101933.97
2019-02-06T12:28:39.769Z,101931.76
2019-02-06T12:31:08.354Z,101930.66
2019-02-06T12:33:36.969Z,101923.16
2019-02-06T12:36:05.513Z,101916.47
2019-02-06T12:38:34.174Z,101920.04
2019-02-06T12:41:02.751Z,101905.70
2019-02-06T12:43:31.317Z,101906.20
2019-02-06T12:45:59.890Z,101903.00
2019-02-06T12:48:28.488Z,101892.93
2019-02-06T12:50:57.359Z,101888.83
2019-02-06T12:53:26.049Z,101883.48
2019-02-06T12:55:56.390Z,101875.80
2019-02-06T12:58:26.201Z,101873.59
2019-02-06T13:00:55.150Z,101873.47
2019-02-06T13:03:24.019Z,101864.42
2019-02-06T13:05:52.971Z,101863.92
2019-02-06T13:08:21.573Z,101869.73
2019-02-06T13:10:50.119Z,101870.59
2019-02-06T13:16:09.604Z,101869.22
2019-02-06T13:21:27.271Z,101855.26
2019-02-06T13:23:55.784Z,101845.76
2019-02-06T13:26:24.295Z,101841.52
2019-02-06T13:28:52.889Z,101843.92
2019-02-06T13:31:21.832Z,101837.97
2019-02-06T13:33:50.384Z,101850.77
2019-02-06T13:36:21.045Z,101844.61
2019-02-06T13:38:49.498Z,101838.69
2019-02-06T13:41:18.155Z,101848.58
2019-02-06T13:43:46.698Z,101849.84
2019-02-06T13:46:15.591Z,101847.01
2019-02-06T13:48:44.199Z,101843.96
2019-02-06T13:51:17.440Z,101834.14
2019-02-06T13:57:34.298Z,101831.69
2019-02-06T13:59:49.799Z,101828.55
2019-02-06T14:02:18.361Z,101824.50
2019-02-06T14:04:59.043Z,101819.92
2019-02-06T14:07:17.125Z,101813.64
2019-02-06T14:09:45.645Z,101824.06
2019-02-06T14:12:47.205Z,101817.65
2019-02-06T14:21:48.626Z,101798.92
2019-02-06T14:31:06.413Z,101795.17
2019-02-06T14:37:03.489Z,101794.95
2019-02-06T14:40:10.786Z,101791.48
2019-02-06T14:46:14.909Z,101788.92
2019-02-06T14:49:30.311Z,101791.47
2019-02-06T14:52:50.540Z,101785.20
2019-02-06T14:55:32.497Z,101786.77
2019-02-06T14:58:39.826Z,101778.23
2019-02-06T15:05:03.654Z,101784.56
2019-02-06T15:08:20.256Z,101780.59
2019-02-06T15:11:28.693Z,101770.97
2019-02-06T15:15:06.829Z,101771.19
2019-02-06T15:18:07.446Z,101773.93
2019-02-06T15:21:15.940Z,101759.86
2019-02-06T15:24:53.439Z,101749.65
2019-02-06T15:30:44.057Z,101754.62
2019-02-06T15:37:04.766Z,101762.45
2019-02-06T15:40:12.994Z,101755.83
2019-02-06T15:43:21.592Z,101752.07
2019-02-06T15:46:28.815Z,101743.30
2019-02-06T15:49:35.992Z,101747.95
2019-02-06T15:52:43.258Z,101734.36
2019-02-06T15:55:50.442Z,101734.25
2019-02-06T15:58:58.975Z,101729.11
2019-02-06T16:02:07.569Z,101729.45
2019-02-06T16:08:31.759Z,101721.98
2019-02-06T16:15:10.488Z,101710.93
2019-02-06T16:24:22.397Z,101712.52
2019-02-06T16:27:30.861Z,101709.99
2019-02-06T16:31:12.924Z,101708.86
2019-02-06T16:33:49.608Z,101697.63
2019-02-06T16:40:39.156Z,101677.09
2019-02-06T16:47:05.139Z,101679.26
2019-02-06T16:50:16.595Z,101685.16
2019-02-06T16:53:13.645Z,101686.33
2019-02-06T16:56:26.611Z,101686.43
2019-02-06T16:59:35.149Z,101679.12
2019-02-06T17:02:42.370Z,101680.45
2019-02-06T17:05:50.821Z,101675.54
2019-02-06T17:08:58.024Z,101676.61
2019-02-06T17:12:05.280Z,101662.56
2019-02-06T17:15:12.822Z,101670.38
2019-02-06T17:18:20.290Z,101667.61
2019-02-06T17:21:28.978Z,101664.82
2019-02-06T17:24:37.638Z,101662.83
2019-02-06T17:27:46.068Z,101673.39
2019-02-06T17:30:53.687Z,101676.98
2019-02-06T17:34:00.904Z,101672.15
2019-02-06T17:37:09.596Z,101672.90
2019-02-06T17:40:18.091Z,101677.45
2019-02-06T17:43:26.955Z,101671.21
2019-02-06T17:46:34.089Z,101658.95
2019-02-06T17:49:41.278Z,101655.73
2019-02-06T17:52:48.732Z,101654.05
2019-02-06T17:55:57.190Z,101653.92
2019-02-06T17:59:05.681Z,101643.11
2019-02-06T18:01:34.301Z,101638.31
2019-02-06T18:04:02.885Z,101631.49
2019-02-06T18:06:31.320Z,101620.23
2019-02-06T18:09:00.145Z,101624.67
2019-02-06T18:11:30.403Z,101620.34
2019-02-06T18:13:59.077Z,101614.69
2019-02-06T18:16:27.703Z,101619.49
2019-02-06T18:18:56.218Z,101612.67
2019-02-06T18:21:24.909Z,101602.58
2019-02-06T18:24:33.397Z,101617.33
2019-02-06T18:27:01.995Z,101618.91
2019-02-06T18:29:30.579Z,101618.17
2019-02-06T18:31:59.666Z,101625.73
2019-02-06T18:34:28.137Z,101622.28
2019-02-06T18:36:58.511Z,101617.95
2019-02-06T18:39:27.098Z,101621.66
2019-02-06T18:41:55.713Z,101627.31
2019-02-06T18:44:25.197Z,101633.66
2019-02-06T18:46:54.759Z,101627.64
2019-02-06T18:49:23.269Z,101629.70
2019-02-06T18:51:51.805Z,101631.13
2019-02-06T18:54:20.569Z,101627.88
2019-02-06T18:56:49.429Z,101623.44
2019-02-06T18:59:18.394Z,101622.23
2019-02-06T19:01:46.994Z,101618.86
2019-02-06T19:04:15.720Z,101614.57
2019-02-06T19:06:44.268Z,101616.12
2019-02-06T19:09:13.190Z,101616.48
2019-02-06T19:11:42.139Z,101613.11
2019-02-06T19:14:50.630Z,101602.20
2019-02-06T19:17:19.355Z,101604.38
2019-02-06T19:19:48.237Z,101599.83
2019-02-06T19:22:16.776Z,101589.33
2019-02-06T19:24:47.038Z,101584.19
2019-02-06T19:27:15.660Z,101582.50
2019-02-06T19:29:44.300Z,101577.22
2019-02-06T19:32:12.740Z,101573.14
2019-02-06T19:34:41.698Z,101569.66
2019-02-06T19:37:10.216Z,101579.13
2019-02-06T19:39:38.604Z,101579.97
2019-02-06T19:42:07.268Z,101578.39
2019-02-06T19:44:35.766Z,101576.58
2019-02-06T19:47:04.731Z,101570.94
2019-02-06T19:49:33.327Z,101570.45
2019-02-06T19:52:01.885Z,101559.42
2019-02-06T19:54:30.447Z,101561.47
2019-02-06T19:56:59.039Z,101567.45
2019-02-06T19:59:27.690Z,101571.89
2019-02-06T20:02:24.859Z,101554.86
2019-02-06T20:04:53.734Z,101557.36
2019-02-06T20:07:22.356Z,101556.14
2019-02-06T20:09:50.914Z,101562.37
2019-02-06T20:18:07.140Z,101556.88
2019-02-06T20:21:47.352Z,101549.06
2019-02-06T20:24:53.871Z,101553.17
2019-02-06T20:27:24.733Z,101555.92
2019-02-06T20:29:53.629Z,101551.70
2019-02-06T20:32:24.531Z,101548.70
2019-02-06T20:35:23.816Z,101548.70
2019-02-06T20:37:23.917Z,101545.11
2019-02-06T20:39:52.523Z,101543.31
2019-02-06T20:42:21.125Z,101536.01
2019-02-06T20:44:49.899Z,101551.23
2019-02-06T20:47:18.374Z,101546.53
2019-02-06T20:49:47.173Z,101540.30
2019-02-06T20:52:16.009Z,101534.42
2019-02-06T20:54:44.510Z,101535.48
2019-02-06T20:57:15.719Z,101530.68
2019-02-06T20:59:43.509Z,101530.05
2019-02-06T21:02:12.289Z,101528.41
2019-02-06T21:04:47.065Z,101524.51
2019-02-06T21:10:52.040Z,101523.28
2019-02-06T21:16:31.662Z,101516.89
2019-02-06T21:19:00.266Z,101520.73
2019-02-06T21:21:28.890Z,101526.13
2019-02-06T21:24:16.862Z,101526.13
2019-02-06T21:26:45.449Z,101529.97
2019-02-06T21:29:14.062Z,101528.16
2019-02-06T21:31:42.657Z,101530.55
2019-02-06T21:34:11.214Z,101525.37
2019-02-06T21:36:40.082Z,101517.14
2019-02-06T21:39:10.376Z,101523.58
2019-02-06T21:41:38.989Z,101521.08
2019-02-06T21:44:07.570Z,101507.27
2019-02-06T21:46:36.105Z,101508.48
2019-02-06T21:51:40.201Z,101502.84
2019-02-06T21:54:08.659Z,101498.03
2019-02-06T21:56:37.340Z,101497.66
2019-02-06T21:59:40.240Z,101497.75
2019-02-06T22:07:28.410Z,101480.34
2019-02-06T22:12:51.546Z,101481.55
2019-02-06T22:23:44.356Z,101479.33
2019-02-06T22:26:13.100Z,101481.72
2019-02-06T22:28:41.983Z,101479.57
2019-02-06T22:31:10.437Z,101470.48
2019-02-06T22:33:38.985Z,101467.95
2019-02-06T22:36:07.526Z,101463.52
2019-02-06T22:38:36.124Z,101445.78
2019-02-06T22:41:04.712Z,101438.38
2019-02-06T22:43:45.459Z,101431.99
2019-02-06T22:46:03.543Z,101442.19
2019-02-06T22:48:32.058Z,101445.67
2019-02-06T22:51:00.499Z,101456.06
2019-02-06T22:53:29.338Z,101463.41
2019-02-06T22:55:57.718Z,101469.21
2019-02-06T22:58:26.195Z,101468.03
2019-02-06T23:01:33.695Z,101470.43
2019-02-06T23:04:02.261Z,101466.72
2019-02-06T23:06:30.777Z,101455.70
2019-02-06T23:08:59.277Z,101447.69
2019-02-06T23:11:28.016Z,101443.72
2019-02-06T23:13:56.561Z,101443.70
2019-02-06T23:16:25.100Z,101440.34
2019-02-06T23:18:53.569Z,101439.75
2019-02-06T23:21:22.346Z,101438.53
2019-02-06T23:23:50.858Z,101440.80
2019-02-06T23:26:19.464Z,101432.64
2019-02-06T23:28:47.995Z,101432.31
2019-02-06T23:31:16.546Z,101426.20
2019-02-06T23:33:45.133Z,101426.09
2019-02-06T23:36:13.899Z,101422.23
2019-02-06T23:38:42.425Z,101418.17
2019-02-06T23:41:10.928Z,101416.48
2019-02-06T23:43:39.845Z,101400.17
2019-02-06T23:46:08.727Z,101400.06
2019-02-06T23:48:37.285Z,101399.55
2019-02-06T23:51:07.550Z,101392.47
2019-02-06T23:53:55.445Z,101391.11
2019-02-06T23:56:24.369Z,101386.72
2019-02-06T23:58:53.010Z,101383.60
